Time;durP1;ratioP1;P1;durP2;ratioP2;P2;SDS_P1;SDS_P2;PMS_P1;PMS_P2;Temp;Humidity;BMP_temperature;BMP_pressure;BME280_temperature;BME280_humidity;BME280_pressure;Samples;Min_cycle;Max_cycle;Signal;HPM_P1;HPM_P2
2021/07/03 00:00:33;;;;;;;3.08;2.38;;;24.90;51.50;;;;;;5023359;28;20387;-65
2021/07/03 00:02:59;;;;;;;2.72;2.40;;;24.80;51.50;;;;;;5022837;28;20764;-65
2021/07/03 00:05:25;;;;;;;2.90;2.40;;;24.90;51.50;;;;;;5023582;28;20390;-66
2021/07/03 00:07:50;;;;;;;2.90;2.50;;;24.90;51.50;;;;;;5023380;28;20423;-65
2021/07/03 00:10:17;;;;;;;2.97;2.50;;;24.90;51.50;;;;;;5023117;28;20486;-65
2021/07/03 00:12:42;;;;;;;2.70;2.28;;;24.90;51.40;;;;;;5023100;28;20474;-65
2021/07/03 00:15:12;;;;;;;2.83;2.50;;;24.90;51.50;;;;;;5022895;28;20820;-65
2021/07/03 00:17:39;;;;;;;3.50;2.50;;;24.90;51.50;;;;;;5022554;28;21079;-66
2021/07/03 00:20:09;;;;;;;3.20;2.50;;;24.90;51.50;;;;;;5021470;28;20415;-66
2021/07/03 00:22:35;;;;;;;3.50;2.60;;;24.90;51.40;;;;;;5022772;28;20446;-66
2021/07/03 00:25:03;;;;;;;3.60;2.80;;;24.80;51.40;;;;;;5022705;28;20433;-65
2021/07/03 00:27:29;;;;;;;2.63;2.40;;;24.90;51.50;;;;;;5023115;28;20399;-65
2021/07/03 00:29:54;;;;;;;3.10;2.50;;;24.80;51.50;;;;;;5022689;28;21176;-65
2021/07/03 00:32:20;;;;;;;2.95;2.65;;;24.90;51.50;;;;;;5023010;28;20875;-66
2021/07/03 00:34:46;;;;;;;3.08;2.38;;;24.90;51.50;;;;;;5022555;28;20393;-65
2021/07/03 00:37:12;;;;;;;2.70;2.33;;;24.80;51.40;;;;;;5022591;28;20385;-65
2021/07/03 00:39:37;;;;;;;2.80;2.30;;;24.90;51.50;;;;;;5022663;28;21510;-65
2021/07/03 00:42:03;;;;;;;2.90;2.40;;;24.80;51.50;;;;;;5022693;28;20414;-65
2021/07/03 00:44:31;;;;;;;2.70;2.40;;;24.80;51.50;;;;;;5022336;28;20395;-65
2021/07/03 00:46:59;;;;;;;2.95;2.60;;;24.80;51.40;;;;;;5021837;28;20437;-65
2021/07/03 00:49:25;;;;;;;2.70;2.40;;;24.80;51.50;;;;;;5022614;28;20386;-65
2021/07/03 00:51:51;;;;;;;2.87;2.30;;;24.80;51.50;;;;;;5037844;28;20721;-66
2021/07/03 00:54:20;;;;;;;2.90;2.60;;;24.80;51.40;;;;;;5022429;28;20395;-65
2021/07/03 00:56:46;;;;;;;2.75;2.20;;;24.80;51.40;;;;;;5021950;28;20383;-67
2021/07/03 00:59:12;;;;;;;2.47;2.20;;;24.80;51.50;;;;;;5021934;28;20899;-65
2021/07/03 01:01:37;;;;;;;2.75;2.35;;;24.80;51.50;;;;;;5022164;28;20756;-65
2021/07/03 01:04:04;;;;;;;2.97;2.40;;;24.80;51.50;;;;;;5021264;28;20394;-65
2021/07/03 01:06:30;;;;;;;2.78;2.35;;;24.80;51.50;;;;;;5037425;28;20403;-65
2021/07/03 01:08:56;;;;;;;2.50;2.30;;;24.80;51.40;;;;;;5020676;28;20399;-65
2021/07/03 01:11:29;;;;;;;3.20;2.80;;;24.80;51.40;;;;;;5021948;28;20486;-65
2021/07/03 01:13:55;;;;;;;2.60;2.30;;;24.80;51.40;;;;;;5021144;28;20391;-65
2021/07/03 01:16:21;;;;;;;2.58;2.22;;;24.80;51.40;;;;;;5037393;28;20395;-65
2021/07/03 01:18:47;;;;;;;3.80;2.40;;;24.80;51.30;;;;;;5022160;28;20440;-65
2021/07/03 01:21:15;;;;;;;2.93;2.60;;;24.80;51.40;;;;;;5020151;28;20505;-65
2021/07/03 01:23:41;;;;;;;2.92;2.40;;;24.80;51.30;;;;;;5022142;28;20395;-65
2021/07/03 01:26:07;;;;;;;3.03;2.42;;;24.80;51.30;;;;;;5022012;28;20462;-67
2021/07/03 01:28:33;;;;;;;2.80;2.50;;;24.80;51.20;;;;;;5022279;28;20482;-65
2021/07/03 01:30:59;;;;;;;2.92;2.40;;;24.80;51.40;;;;;;5025691;28;20387;-66
2021/07/03 01:33:25;;;;;;;2.80;2.40;;;24.80;51.30;;;;;;5026250;28;20794;-66
2021/07/03 01:35:51;;;;;;;3.00;2.30;;;24.80;51.30;;;;;;5024623;28;20399;-65
2021/07/03 01:38:22;;;;;;;2.70;2.17;;;24.80;51.30;;;;;;5024664;28;20398;-65
2021/07/03 01:40:48;;;;;;;2.50;2.15;;;24.80;51.30;;;;;;5024777;28;20401;-65
2021/07/03 01:43:24;;;;;;;2.83;2.33;;;24.80;51.20;;;;;;5025546;28;20426;-65
2021/07/03 01:45:51;;;;;;;3.05;2.42;;;24.80;51.20;;;;;;5025890;28;20947;-65
2021/07/03 01:48:31;;;;;;;2.53;2.20;;;24.80;51.20;;;;;;5026061;28;20501;-65
2021/07/03 01:50:58;;;;;;;2.80;2.47;;;24.80;51.10;;;;;;5025523;28;20405;-66
2021/07/03 01:53:26;;;;;;;3.00;2.37;;;24.80;51.20;;;;;;5025787;28;20406;-66
2021/07/03 01:55:52;;;;;;;3.00;2.45;;;24.80;51.20;;;;;;5025586;28;20391;-65
2021/07/03 01:58:20;;;;;;;2.70;2.33;;;24.80;51.20;;;;;;5024370;28;20412;-66
2021/07/03 02:00:48;;;;;;;2.60;2.20;;;24.80;51.20;;;;;;5025982;28;20879;-66
2021/07/03 02:03:14;;;;;;;3.13;2.50;;;24.80;51.10;;;;;;5024024;28;20502;-66
2021/07/03 02:05:40;;;;;;;3.05;2.08;;;24.70;51.10;;;;;;5025891;28;20769;-67
2021/07/03 02:08:06;;;;;;;2.50;1.98;;;24.70;51.20;;;;;;5025970;28;20407;-65
2021/07/03 02:10:32;;;;;;;2.90;2.27;;;24.70;51.30;;;;;;5025661;28;20394;-65
2021/07/03 02:12:57;;;;;;;3.50;2.40;;;24.70;51.90;;;;;;5025400;28;20428;-65
2021/07/03 02:15:23;;;;;;;2.60;2.17;;;24.70;51.20;;;;;;5025442;28;20394;-65
2021/07/03 02:17:49;;;;;;;3.00;2.40;;;24.70;51.20;;;;;;5025760;28;20859;-65
2021/07/03 02:20:14;;;;;;;2.57;2.20;;;24.70;51.20;;;;;;5025602;28;20403;-65
2021/07/03 02:22:40;;;;;;;2.70;2.30;;;24.70;51.10;;;;;;5024571;28;20423;-65
2021/07/03 02:25:06;;;;;;;2.60;2.40;;;24.80;51.00;;;;;;5023575;28;20525;-65
2021/07/03 02:27:32;;;;;;;3.08;2.42;;;24.70;51.00;;;;;;5025603;28;20408;-65
2021/07/03 02:30:00;;;;;;;3.53;2.33;;;24.70;51.00;;;;;;5025590;28;20383;-66
2021/07/03 02:32:25;;;;;;;3.38;2.25;;;24.70;51.60;;;;;;5024099;28;20399;-65
2021/07/03 02:34:51;;;;;;;3.03;2.40;;;24.70;51.10;;;;;;5025323;28;20422;-66
2021/07/03 02:37:17;;;;;;;3.00;2.38;;;24.70;51.00;;;;;;5025026;28;20403;-65
2021/07/03 02:39:43;;;;;;;2.70;2.30;;;24.60;50.90;;;;;;5024807;28;20380;-66
2021/07/03 02:42:08;;;;;;;2.70;2.20;;;24.70;51.00;;;;;;5025021;28;20410;-65
2021/07/03 02:44:34;;;;;;;2.80;2.17;;;24.70;50.90;;;;;;5025127;28;20949;-65
2021/07/03 02:47:00;;;;;;;2.60;2.30;;;24.60;50.90;;;;;;5024918;28;20391;-65
2021/07/03 02:49:26;;;;;;;2.92;2.45;;;24.70;50.90;;;;;;5024932;28;20395;-66
2021/07/03 02:51:51;;;;;;;2.70;2.40;;;24.60;50.90;;;;;;5025408;28;20393;-65
2021/07/03 02:54:17;;;;;;;2.45;2.20;;;24.60;50.90;;;;;;5025089;28;20398;-65
2021/07/03 02:56:42;;;;;;;2.90;2.30;;;24.60;50.90;;;;;;5025519;28;20394;-65
2021/07/03 02:59:08;;;;;;;2.55;2.10;;;24.70;50.90;;;;;;5024338;28;20390;-65
2021/07/03 03:01:34;;;;;;;2.95;2.40;;;24.60;50.90;;;;;;5024954;28;20464;-65
2021/07/03 03:04:00;;;;;;;2.97;2.40;;;24.60;51.00;;;;;;5024640;28;20399;-65
2021/07/03 03:06:25;;;;;;;2.80;2.10;;;24.60;50.90;;;;;;5025026;28;20394;-66
2021/07/03 03:08:51;;;;;;;2.70;2.30;;;24.60;50.90;;;;;;5024781;28;20399;-65
2021/07/03 03:11:17;;;;;;;2.90;2.30;;;24.60;50.90;;;;;;5024463;28;20402;-65
2021/07/03 03:13:42;;;;;;;2.97;2.30;;;24.60;50.90;;;;;;5024903;28;20405;-66
2021/07/03 03:16:08;;;;;;;2.78;2.30;;;24.60;50.80;;;;;;5024373;28;20387;-66
2021/07/03 03:18:34;;;;;;;2.60;2.33;;;24.60;50.80;;;;;;5024753;28;20387;-65
2021/07/03 03:20:59;;;;;;;3.15;2.35;;;24.60;50.80;;;;;;5024291;28;20426;-66
2021/07/03 03:23:25;;;;;;;2.80;2.20;;;24.60;50.80;;;;;;5024463;28;20462;-65
2021/07/03 03:25:50;;;;;;;2.65;2.15;;;24.60;50.80;;;;;;5024635;28;20397;-65
2021/07/03 03:28:16;;;;;;;2.45;2.10;;;24.60;50.80;;;;;;5024451;28;20405;-66
2021/07/03 03:30:42;;;;;;;2.70;2.10;;;24.60;50.70;;;;;;5024112;28;20402;-66
2021/07/03 03:33:07;;;;;;;2.38;2.00;;;24.60;50.60;;;;;;5023817;28;20402;-65
2021/07/03 03:35:33;;;;;;;2.50;2.30;;;24.60;50.60;;;;;;5024472;28;20398;-65
2021/07/03 03:37:59;;;;;;;2.67;2.33;;;24.60;50.70;;;;;;5024586;28;20394;-65
2021/07/03 03:40:27;;;;;;;2.67;2.20;;;24.60;50.70;;;;;;5024677;28;20394;-65
2021/07/03 03:42:53;;;;;;;2.50;2.10;;;24.60;50.70;;;;;;5023866;28;20419;-66
2021/07/03 03:45:19;;;;;;;2.47;2.20;;;24.60;50.60;;;;;;5023681;28;20397;-66
2021/07/03 03:47:45;;;;;;;2.63;2.33;;;24.60;50.70;;;;;;5039190;28;20403;-66
2021/07/03 03:50:11;;;;;;;3.10;2.30;;;24.60;50.70;;;;;;5024248;28;20510;-66
2021/07/03 03:52:37;;;;;;;2.80;2.05;;;24.60;50.70;;;;;;5023351;28;20481;-65
2021/07/03 03:55:04;;;;;;;2.83;2.38;;;24.60;50.50;;;;;;5023495;28;20479;-66
2021/07/03 03:57:30;;;;;;;2.50;2.10;;;24.60;50.50;;;;;;5024057;28;20395;-65
2021/07/03 03:59:57;;;;;;;2.67;2.20;;;24.60;50.50;;;;;;5023553;28;20444;-65
2021/07/03 04:02:23;;;;;;;2.67;2.22;;;24.60;50.60;;;;;;5023540;28;21238;-67
2021/07/03 04:04:50;;;;;;;2.90;2.40;;;24.60;50.50;;;;;;5039071;28;20822;-66
2021/07/03 04:07:17;;;;;;;2.45;2.25;;;24.60;50.60;;;;;;5023192;28;20798;-66
2021/07/03 04:09:43;;;;;;;2.72;2.33;;;24.60;50.60;;;;;;5023907;28;20391;-65
2021/07/03 04:12:09;;;;;;;2.90;2.25;;;24.60;50.60;;;;;;5039438;28;20403;-67
2021/07/03 04:14:35;;;;;;;3.00;2.33;;;24.50;50.70;;;;;;5023262;28;20410;-67
2021/07/03 04:17:01;;;;;;;3.10;2.20;;;24.60;49.40;;;;;;5022665;28;20391;-66
2021/07/03 04:19:27;;;;;;;4.85;2.30;;;24.50;50.00;;;;;;5023119;28;20452;-67
2021/07/03 04:21:53;;;;;;;4.13;2.10;;;24.50;49.40;;;;;;5021945;28;20435;-67
2021/07/03 04:24:18;;;;;;;4.80;2.73;;;24.50;49.60;;;;;;5023460;28;20387;-66
2021/07/03 04:26:44;;;;;;;4.15;2.97;;;24.40;49.20;;;;;;5023321;28;20414;-67
2021/07/03 04:29:10;;;;;;;5.63;3.00;;;24.40;49.00;;;;;;5022998;28;20512;-67
2021/07/03 04:31:35;;;;;;;6.72;3.08;;;24.40;48.80;;;;;;5022229;28;20407;-66
2021/07/03 04:34:01;;;;;;;5.37;3.13;;;24.40;49.10;;;;;;5023096;28;20963;-67
2021/07/03 04:36:27;;;;;;;5.32;3.13;;;24.40;49.30;;;;;;5037890;28;20441;-67
2021/07/03 04:38:52;;;;;;;5.65;3.42;;;24.50;49.30;;;;;;5022833;28;20482;-67
2021/07/03 04:41:18;;;;;;;5.57;3.10;;;24.50;49.20;;;;;;5022533;28;20389;-66
2021/07/03 04:43:44;;;;;;;5.20;3.22;;;24.50;49.10;;;;;;5022884;28;20391;-67
2021/07/03 04:46:09;;;;;;;4.27;3.00;;;24.40;49.10;;;;;;5022559;28;20887;-66
2021/07/03 04:48:35;;;;;;;5.32;3.28;;;24.40;48.90;;;;;;5023011;28;20394;-67
2021/07/03 04:51:00;;;;;;;3.27;2.90;;;24.40;48.80;;;;;;5022090;28;20445;-63
2021/07/03 04:53:26;;;;;;;6.53;3.33;;;24.40;48.70;;;;;;5022458;28;20403;-66
2021/07/03 04:55:52;;;;;;;4.80;2.97;;;24.40;48.70;;;;;;5022893;28;20395;-66
2021/07/03 04:58:18;;;;;;;5.47;3.10;;;24.30;48.70;;;;;;5023105;28;20878;-66
2021/07/03 05:00:43;;;;;;;5.32;3.17;;;24.30;49.10;;;;;;5022955;28;20403;-66
2021/07/03 05:03:09;;;;;;;8.15;3.10;;;24.30;49.10;;;;;;5020763;28;20516;-67
2021/07/03 05:05:35;;;;;;;6.03;3.13;;;24.30;49.30;;;;;;5023037;28;20454;-65
2021/07/03 05:08:00;;;;;;;6.00;3.20;;;24.30;49.10;;;;;;5022510;28;20747;-65
2021/07/03 05:10:26;;;;;;;6.30;3.35;;;24.30;49.40;;;;;;5022804;28;20397;-65
2021/07/03 05:12:52;;;;;;;5.73;3.00;;;24.30;49.20;;;;;;5022728;28;20385;-65
2021/07/03 05:15:18;;;;;;;6.32;3.47;;;24.30;49.40;;;;;;5022264;28;20383;-65
2021/07/03 05:17:44;;;;;;;4.07;2.93;;;24.30;49.40;;;;;;5022403;28;20897;-65
2021/07/03 05:20:10;;;;;;;6.40;2.92;;;24.30;49.40;;;;;;5022706;28;20407;-65
2021/07/03 05:22:37;;;;;;;5.53;3.00;;;24.30;49.30;;;;;;5022308;28;20423;-65
2021/07/03 05:25:02;;;;;;;5.85;2.70;;;24.30;49.50;;;;;;5022307;28;20395;-65
2021/07/03 05:27:28;;;;;;;3.95;2.60;;;24.30;49.40;;;;;;5022474;28;20391;-65
2021/07/03 05:29:54;;;;;;;4.47;2.70;;;24.30;49.40;;;;;;5022502;28;20391;-65
2021/07/03 05:32:19;;;;;;;3.73;2.70;;;24.40;49.40;;;;;;5022670;28;20430;-65
2021/07/03 05:34:45;;;;;;;3.65;2.78;;;24.30;49.30;;;;;;5022286;28;20391;-65
2021/07/03 05:37:11;;;;;;;4.77;2.73;;;24.40;49.30;;;;;;5021261;28;20427;-65
2021/07/03 05:39:36;;;;;;;3.83;2.78;;;24.40;49.20;;;;;;5022378;28;20437;-65
2021/07/03 05:42:02;;;;;;;3.30;2.57;;;24.50;49.30;;;;;;5022324;28;20853;-65
2021/07/03 05:44:29;;;;;;;4.88;2.63;;;24.50;49.30;;;;;;5022906;28;20409;-65
2021/07/03 05:46:54;;;;;;;3.78;2.60;;;24.40;49.20;;;;;;5022434;28;20387;-65
2021/07/03 05:49:20;;;;;;;3.97;2.70;;;24.50;49.20;;;;;;5037243;28;21040;-66
2021/07/03 05:51:46;;;;;;;4.00;2.73;;;24.50;49.20;;;;;;5022086;28;20425;-66
2021/07/03 05:54:12;;;;;;;3.38;2.75;;;24.60;49.30;;;;;;5022579;28;20383;-65
2021/07/03 05:56:38;;;;;;;3.00;2.50;;;24.60;49.20;;;;;;5022181;28;20399;-65
2021/07/03 05:59:04;;;;;;;3.00;2.50;;;24.60;49.20;;;;;;5022046;28;20465;-65
2021/07/03 06:01:30;;;;;;;4.03;2.40;;;24.60;49.10;;;;;;5021871;28;20391;-65
2021/07/03 06:03:55;;;;;;;3.47;2.65;;;24.60;49.10;;;;;;5022140;28;20391;-65
2021/07/03 06:06:21;;;;;;;3.50;2.60;;;24.60;49.10;;;;;;5022177;28;20495;-66
2021/07/03 06:08:47;;;;;;;3.55;2.50;;;24.60;49.10;;;;;;5022343;28;20958;-66
2021/07/03 06:11:13;;;;;;;3.70;2.63;;;24.60;49.10;;;;;;5022118;28;20403;-65
2021/07/03 06:13:39;;;;;;;3.78;2.47;;;24.60;49.10;;;;;;5022024;28;20837;-66
2021/07/03 06:16:05;;;;;;;3.45;2.50;;;24.70;49.10;;;;;;5023777;28;20422;-65
2021/07/03 06:18:31;;;;;;;3.63;2.60;;;24.70;49.10;;;;;;5025451;28;20408;-65
2021/07/03 06:20:57;;;;;;;3.53;2.77;;;24.70;49.10;;;;;;5025764;28;20934;-65
2021/07/03 06:23:24;;;;;;;2.72;2.40;;;24.70;49.10;;;;;;5025213;28;20779;-65
2021/07/03 06:25:50;;;;;;;2.83;2.47;;;24.70;49.10;;;;;;5025816;28;20391;-65
2021/07/03 06:28:15;;;;;;;3.80;2.77;;;24.70;49.10;;;;;;5041045;28;20879;-65
2021/07/03 06:30:41;;;;;;;3.35;2.60;;;24.70;49.10;;;;;;5025548;28;20997;-66
2021/07/03 06:33:07;;;;;;;2.75;2.40;;;24.70;49.10;;;;;;5025410;28;20969;-66
2021/07/03 06:35:33;;;;;;;3.47;2.40;;;24.70;49.10;;;;;;5025032;28;20387;-65
2021/07/03 06:37:58;;;;;;;3.30;2.50;;;24.70;49.10;;;;;;5025699;28;21650;-65
2021/07/03 06:40:24;;;;;;;2.92;2.60;;;24.70;49.10;;;;;;5025509;28;20422;-65
2021/07/03 06:42:50;;;;;;;2.90;2.50;;;24.80;49.10;;;;;;5024449;28;20431;-66
2021/07/03 06:45:15;;;;;;;2.97;2.33;;;24.80;49.00;;;;;;5025218;28;20445;-66
2021/07/03 06:47:41;;;;;;;3.37;2.50;;;24.80;48.90;;;;;;5023951;28;20453;-65
2021/07/03 06:50:08;;;;;;;2.92;2.22;;;24.80;48.90;;;;;;5025155;28;20801;-65
2021/07/03 06:52:34;;;;;;;2.97;2.38;;;24.80;48.90;;;;;;5024962;28;20414;-65
2021/07/03 06:54:59;;;;;;;2.80;2.35;;;24.80;48.90;;;;;;5025227;28;20970;-65
2021/07/03 06:57:25;;;;;;;3.20;2.40;;;24.90;48.90;;;;;;5024561;28;20398;-65
2021/07/03 06:59:51;;;;;;;3.30;2.40;;;24.80;48.80;;;;;;5025368;28;20390;-65
2021/07/03 07:02:18;;;;;;;3.50;2.50;;;24.80;48.90;;;;;;5024768;28;20407;-65
2021/07/03 07:04:44;;;;;;;2.58;2.38;;;24.90;48.90;;;;;;5025000;28;20406;-65
2021/07/03 07:07:09;;;;;;;2.53;2.28;;;24.80;48.80;;;;;;5024663;28;20379;-65
2021/07/03 07:09:35;;;;;;;3.17;2.40;;;24.90;48.90;;;;;;5024476;28;20421;-65
2021/07/03 07:12:01;;;;;;;2.97;2.40;;;24.90;48.90;;;;;;5024836;28;21324;-65
2021/07/03 07:14:27;;;;;;;2.53;2.33;;;24.90;48.90;;;;;;5024588;28;20466;-66
2021/07/03 07:16:53;;;;;;;2.95;2.33;;;24.90;48.90;;;;;;5024868;28;20391;-65
2021/07/03 07:19:19;;;;;;;3.08;2.40;;;24.90;48.90;;;;;;5024234;28;20383;-65
2021/07/03 07:21:45;;;;;;;2.70;2.33;;;24.80;48.80;;;;;;5023912;28;20996;-66
2021/07/03 07:24:10;;;;;;;3.10;2.30;;;24.90;48.90;;;;;;5024868;28;20403;-66
2021/07/03 07:26:37;;;;;;;3.78;2.30;;;24.90;48.90;;;;;;5024285;28;20391;-65
2021/07/03 07:29:03;;;;;;;3.20;2.40;;;24.90;48.90;;;;;;5024631;28;20395;-66
2021/07/03 07:31:29;;;;;;;3.00;2.50;;;24.90;48.80;;;;;;5023970;28;20396;-66
2021/07/03 07:33:55;;;;;;;2.70;2.30;;;24.90;48.80;;;;;;5024187;28;20391;-65
2021/07/03 07:36:20;;;;;;;2.90;2.30;;;24.90;48.80;;;;;;5024441;28;20673;-65
2021/07/03 07:38:46;;;;;;;2.70;2.30;;;24.90;48.80;;;;;;5024028;28;20506;-65
2021/07/03 07:41:12;;;;;;;2.50;2.30;;;25.00;48.80;;;;;;5022592;28;20407;-65
2021/07/03 07:43:37;;;;;;;3.00;2.33;;;25.00;48.80;;;;;;5023952;28;20500;-65
2021/07/03 07:46:03;;;;;;;2.40;2.20;;;25.00;48.80;;;;;;5024220;28;20387;-65
2021/07/03 07:48:32;;;;;;;2.70;2.10;;;25.00;48.80;;;;;;5024416;28;20399;-66
2021/07/03 07:51:00;;;;;;;2.53;2.10;;;25.00;48.80;;;;;;5024008;28;20391;-65
2021/07/03 07:53:29;;;;;;;3.00;2.22;;;25.00;48.80;;;;;;5024000;28;20855;-65
2021/07/03 07:55:56;;;;;;;2.63;2.40;;;25.00;48.80;;;;;;5022554;28;20392;-65
2021/07/03 07:58:22;;;;;;;2.70;2.50;;;25.00;48.80;;;;;;5022771;28;21156;-65
2021/07/03 08:00:48;;;;;;;2.47;2.10;;;25.00;48.70;;;;;;5023880;28;20394;-66
2021/07/03 08:03:13;;;;;;;2.67;2.42;;;25.00;48.70;;;;;;5023466;28;20422;-65
2021/07/03 08:05:40;;;;;;;2.58;2.38;;;25.00;48.70;;;;;;5023319;28;20466;-65
2021/07/03 08:08:06;;;;;;;2.40;2.10;;;25.00;48.70;;;;;;5024066;28;20791;-66
2021/07/03 08:10:37;;;;;;;2.40;2.20;;;25.00;48.70;;;;;;5023871;28;20879;-65
2021/07/03 08:13:04;;;;;;;2.67;2.40;;;25.10;48.80;;;;;;5023522;28;20776;-65
2021/07/03 08:15:31;;;;;;;2.97;2.33;;;25.10;48.70;;;;;;5023344;28;20391;-65
2021/07/03 08:17:57;;;;;;;2.70;2.08;;;25.10;48.70;;;;;;5023593;28;20399;-65
2021/07/03 08:20:24;;;;;;;2.90;2.40;;;25.10;48.70;;;;;;5023114;28;20490;-65
2021/07/03 08:22:52;;;;;;;3.00;2.33;;;25.10;48.70;;;;;;5021743;28;20514;-65
2021/07/03 08:25:22;;;;;;;3.28;2.35;;;25.10;48.70;;;;;;5022220;28;21364;-65
2021/07/03 08:27:50;;;;;;;2.58;2.38;;;25.10;48.70;;;;;;5023639;28;20898;-66
2021/07/03 08:30:17;;;;;;;2.42;2.00;;;25.10;48.70;;;;;;5023489;28;20431;-66
2021/07/03 08:32:43;;;;;;;2.88;2.25;;;25.10;48.70;;;;;;5023070;28;20387;-66
2021/07/03 08:35:10;;;;;;;2.50;2.15;;;25.10;48.70;;;;;;5023464;28;20453;-65
2021/07/03 08:37:36;;;;;;;2.85;2.10;;;25.10;48.70;;;;;;5021556;28;20394;-65
2021/07/03 08:40:04;;;;;;;2.42;2.20;;;25.10;48.60;;;;;;5023102;28;20391;-66
2021/07/03 08:42:30;;;;;;;2.63;2.22;;;25.10;48.60;;;;;;5023250;28;20423;-65
2021/07/03 08:44:55;;;;;;;3.10;2.35;;;25.10;48.50;;;;;;5023216;28;20484;-65
2021/07/03 08:47:21;;;;;;;2.88;2.47;;;25.10;48.50;;;;;;5022826;28;20903;-65
2021/07/03 08:49:58;;;;;;;2.65;2.30;;;25.10;48.50;;;;;;5023306;28;20391;-68
2021/07/03 08:52:25;;;;;;;2.58;2.25;;;25.20;48.50;;;;;;5021125;28;20760;-65
2021/07/03 08:55:06;;;;;;;2.45;2.17;;;25.20;48.50;;;;;;5022788;28;20840;-66
2021/07/03 08:57:43;;;;;;;2.70;2.22;;;25.20;48.50;;;;;;5022011;28;20398;-65
2021/07/03 09:00:09;;;;;;;2.53;2.20;;;25.20;48.40;;;;;;5022753;28;20448;-66
2021/07/03 09:02:42;;;;;;;2.67;2.30;;;25.20;48.40;;;;;;5022869;28;20433;-65
2021/07/03 09:05:26;;;;;;;2.80;2.50;;;25.30;48.50;;;;;;5022963;28;20387;-66
2021/07/03 09:08:00;;;;;;;2.53;2.10;;;25.20;48.40;;;;;;5022778;28;20413;-67
2021/07/03 09:10:27;;;;;;;2.53;2.10;;;25.30;48.50;;;;;;5023134;28;20452;-66
2021/07/03 09:12:54;;;;;;;2.80;2.20;;;25.30;48.40;;;;;;5021465;28;20453;-65
2021/07/03 09:15:23;;;;;;;3.00;2.20;;;25.30;48.40;;;;;;5022602;28;20393;-65
2021/07/03 09:17:54;;;;;;;2.63;2.10;;;25.30;48.40;;;;;;5022844;28;20399;-65
2021/07/03 09:20:28;;;;;;;2.58;2.30;;;25.30;48.30;;;;;;5022848;28;20737;-66
2021/07/03 09:23:08;;;;;;;2.90;2.50;;;25.30;48.30;;;;;;5022684;28;20431;-67
2021/07/03 09:25:36;;;;;;;3.10;2.50;;;25.30;48.30;;;;;;5022525;28;20399;-66
2021/07/03 09:28:12;;;;;;;2.80;2.30;;;25.30;48.40;;;;;;5021116;28;20914;-66
2021/07/03 09:30:38;;;;;;;2.60;2.40;;;25.30;48.40;;;;;;5022569;28;20386;-65
2021/07/03 09:33:04;;;;;;;2.67;2.22;;;25.30;48.40;;;;;;5021267;28;20870;-66
2021/07/03 09:35:30;;;;;;;2.80;2.30;;;25.30;48.40;;;;;;5021917;28;20438;-65
2021/07/03 09:38:03;;;;;;;3.20;2.40;;;25.30;48.40;;;;;;5022544;28;20463;-65
2021/07/03 09:40:31;;;;;;;2.83;2.40;;;25.30;48.50;;;;;;5020625;28;21221;-66
2021/07/03 09:43:09;;;;;;;2.80;2.38;;;25.20;48.40;;;;;;5020913;28;21347;-65
2021/07/03 09:45:35;;;;;;;3.08;2.33;;;25.30;48.40;;;;;;5020520;28;20954;-65
2021/07/03 09:48:11;;;;;;;2.65;2.35;;;25.30;48.50;;;;;;5020700;28;20412;-67
2021/07/03 09:50:41;;;;;;;2.70;2.30;;;25.30;48.40;;;;;;5021316;28;20409;-65
2021/07/03 09:53:08;;;;;;;3.20;2.10;;;25.30;48.40;;;;;;5024907;28;20403;-68
2021/07/03 09:55:37;;;;;;;2.58;2.28;;;25.30;48.40;;;;;;5024326;28;20386;-67
2021/07/03 09:58:03;;;;;;;3.13;2.50;;;25.30;48.40;;;;;;5025071;28;20395;-65
2021/07/03 10:00:29;;;;;;;2.83;2.33;;;25.30;48.40;;;;;;5024460;28;20865;-67
2021/07/03 10:02:56;;;;;;;2.60;2.30;;;25.30;48.40;;;;;;5024771;28;20444;-65
2021/07/03 10:05:23;;;;;;;3.13;2.47;;;25.30;48.40;;;;;;5022617;28;20398;-65
2021/07/03 10:07:57;;;;;;;3.83;2.50;;;25.30;48.50;;;;;;5023151;28;20494;-66
2021/07/03 10:10:26;;;;;;;2.50;2.30;;;25.30;48.40;;;;;;5024390;28;20391;-65
2021/07/03 10:13:25;;;;;;;2.95;2.38;;;25.30;48.40;;;;;;5022358;28;20403;-66
2021/07/03 10:16:05;;;;;;;2.95;2.40;;;25.30;48.40;;;;;;5022921;28;20968;-66
2021/07/03 10:18:31;;;;;;;2.53;2.33;;;25.30;48.40;;;;;;5024766;28;20874;-66
2021/07/03 10:21:13;;;;;;;2.60;2.10;;;25.30;48.40;;;;;;5024687;28;20446;-66
2021/07/03 10:23:44;;;;;;;2.63;2.28;;;25.20;48.40;;;;;;5024604;28;20480;-65
2021/07/03 10:26:11;;;;;;;3.00;2.30;;;25.20;48.40;;;;;;5024963;28;20468;-66
2021/07/03 10:28:39;;;;;;;2.80;2.40;;;25.20;48.40;;;;;;5025091;28;20771;-66
2021/07/03 10:31:09;;;;;;;2.50;2.20;;;25.30;48.50;;;;;;5025495;28;20974;-65
2021/07/03 10:33:50;;;;;;;2.90;2.45;;;25.20;48.40;;;;;;5024667;28;20402;-66
2021/07/03 10:36:30;;;;;;;2.60;2.30;;;25.20;48.40;;;;;;5025124;28;20552;-65
2021/07/03 10:38:57;;;;;;;3.03;2.50;;;25.20;48.40;;;;;;5023526;28;20456;-66
2021/07/03 10:41:25;;;;;;;2.92;2.50;;;25.20;48.40;;;;;;5023307;28;20407;-66
2021/07/03 10:43:55;;;;;;;2.88;2.38;;;25.20;48.50;;;;;;5025037;28;21016;-66
2021/07/03 10:46:36;;;;;;;3.00;2.40;;;25.20;48.40;;;;;;5024684;28;20867;-66
2021/07/03 10:49:07;;;;;;;3.05;2.45;;;25.20;48.50;;;;;;5023593;28;20395;-65
2021/07/03 10:51:45;;;;;;;2.95;2.50;;;25.20;48.60;;;;;;5024272;28;20398;-65
2021/07/03 10:54:20;;;;;;;2.95;2.28;;;25.20;48.50;;;;;;5023503;28;20411;-65
2021/07/03 10:57:06;;;;;;;2.58;2.30;;;25.20;48.50;;;;;;5024472;28;20396;-65
2021/07/03 10:59:34;;;;;;;2.90;2.40;;;25.20;48.40;;;;;;5024105;28;20406;-65
2021/07/03 11:02:09;;;;;;;2.90;2.20;;;25.20;48.50;;;;;;5024184;28;20883;-65
2021/07/03 11:04:50;;;;;;;2.90;2.40;;;25.20;48.50;;;;;;5039641;28;20419;-65
2021/07/03 11:07:46;;;;;;;2.85;2.40;;;25.30;48.50;;;;;;5039225;28;20900;-66
2021/07/03 11:10:25;;;;;;;2.72;2.30;;;25.30;48.50;;;;;;5037491;28;20403;-65
2021/07/03 11:12:56;;;;;;;2.85;2.38;;;25.30;48.40;;;;;;5039708;28;20480;-67
2021/07/03 11:15:24;;;;;;;2.72;2.40;;;25.30;48.40;;;;;;5023984;28;20507;-65
2021/07/03 11:17:51;;;;;;;5.60;2.63;;;25.20;48.50;;;;;;5024161;28;20391;-65
2021/07/03 11:20:33;;;;;;;4.47;2.58;;;25.20;48.50;;;;;;5023710;28;20894;-65
2021/07/03 11:23:00;;;;;;;7.82;2.53;;;25.10;48.80;;;;;;5023954;28;20509;-66
2021/07/03 11:25:35;;;;;;;9.15;3.10;;;25.20;49.20;;;;;;5023754;28;20383;-66
2021/07/03 11:28:13;;;;;;;6.60;2.83;;;25.30;48.80;;;;;;5023682;28;20397;-65
2021/07/03 11:30:44;;;;;;;8.63;2.72;;;25.30;48.80;;;;;;5022415;28;20483;-65
2021/07/03 11:33:10;;;;;;;4.20;2.50;;;25.30;48.90;;;;;;5023953;28;20465;-66
2021/07/03 11:35:43;;;;;;;6.67;2.80;;;25.30;48.20;;;;;;5023330;28;20505;-66
2021/07/03 11:38:09;;;;;;;4.20;2.63;;;25.30;48.90;;;;;;5023695;28;20409;-65
2021/07/03 11:40:34;;;;;;;4.70;2.80;;;25.40;49.00;;;;;;5023425;28;20383;-66
2021/07/03 11:43:03;;;;;;;5.43;2.90;;;25.40;48.40;;;;;;5023376;28;20771;-65
2021/07/03 11:45:33;;;;;;;5.80;2.92;;;25.40;48.20;;;;;;5023281;28;20914;-65
2021/07/03 11:48:16;;;;;;;3.63;2.60;;;25.40;48.30;;;;;;5023665;28;20406;-66
2021/07/03 11:50:45;;;;;;;4.93;2.42;;;25.40;48.20;;;;;;5023571;28;20387;-65
2021/07/03 11:53:16;;;;;;;3.78;2.65;;;25.40;48.20;;;;;;5023421;28;20403;-65
2021/07/03 11:55:47;;;;;;;3.15;2.50;;;25.40;48.50;;;;;;5022820;28;20391;-65
2021/07/03 11:58:32;;;;;;;3.93;2.77;;;25.40;48.60;;;;;;5023292;28;20582;-65
2021/07/03 12:01:00;;;;;;;4.57;2.90;;;25.40;48.60;;;;;;5023354;28;20633;-65
2021/07/03 12:03:30;;;;;;;4.63;2.80;;;25.40;48.40;;;;;;5022966;28;20811;-65
2021/07/03 12:05:58;;;;;;;5.75;2.90;;;25.40;48.20;;;;;;5023345;28;20391;-66
2021/07/03 12:08:37;;;;;;;4.57;2.88;;;25.40;48.00;;;;;;5023420;28;20391;-66
2021/07/03 12:11:05;;;;;;;3.55;2.85;;;25.40;48.00;;;;;;5023337;28;20751;-65
2021/07/03 12:13:31;;;;;;;4.20;2.90;;;25.40;48.00;;;;;;5021977;28;20406;-65
2021/07/03 12:15:57;;;;;;;4.07;2.83;;;25.40;48.10;;;;;;5022870;28;20390;-65
2021/07/03 12:18:30;;;;;;;3.63;2.83;;;25.40;48.10;;;;;;5023213;28;20875;-65
2021/07/03 12:21:05;;;;;;;4.23;2.70;;;25.40;48.20;;;;;;5022880;28;20618;-66
2021/07/03 12:23:31;;;;;;;3.72;2.60;;;25.40;48.20;;;;;;5022146;28;20415;-66
2021/07/03 12:25:56;;;;;;;3.38;2.95;;;25.40;48.10;;;;;;5021774;28;20598;-67
2021/07/03 12:28:22;;;;;;;3.50;2.50;;;25.40;48.20;;;;;;5022904;28;20413;-66
2021/07/03 12:30:48;;;;;;;3.10;2.53;;;25.50;48.20;;;;;;5022484;28;20470;-66
2021/07/03 12:33:15;;;;;;;3.73;2.47;;;25.40;48.20;;;;;;5038068;28;20882;-65
2021/07/03 12:35:55;;;;;;;3.22;2.60;;;25.50;48.40;;;;;;5020841;28;20392;-65
2021/07/03 12:38:28;;;;;;;3.80;2.85;;;25.50;48.20;;;;;;5022701;28;20435;-65
2021/07/03 12:40:54;;;;;;;4.38;2.58;;;25.50;48.10;;;;;;5022697;28;20441;-66
2021/07/03 12:43:33;;;;;;;3.28;2.80;;;25.50;48.10;;;;;;5022106;28;20423;-65
2021/07/03 12:46:03;;;;;;;3.28;2.60;;;25.60;48.30;;;;;;5022014;28;20415;-65
2021/07/03 12:48:40;;;;;;;2.95;2.65;;;25.50;48.20;;;;;;5022371;28;20463;-65
2021/07/03 12:51:09;;;;;;;3.20;2.50;;;25.60;48.20;;;;;;5022383;28;20399;-67